sensor_id;sensor_type;location;lat;lon;timestamp;temperature;humidity
16271;DHT22;8243;49.048;8.396;2023-07-31T00:00:26;17.40;56.90
16271;DHT22;8243;49.048;8.396;2023-07-31T00:02:52;17.40;56.50
16271;DHT22;8243;49.048;8.396;2023-07-31T00:05:18;17.50;56.10
16271;DHT22;8243;49.048;8.396;2023-07-31T00:07:43;17.50;55.90
16271;DHT22;8243;49.048;8.396;2023-07-31T00:10:09;17.50;56.30
16271;DHT22;8243;49.048;8.396;2023-07-31T00:12:35;17.50;57.00
16271;DHT22;8243;49.048;8.396;2023-07-31T00:15:01;17.40;57.30
16271;DHT22;8243;49.048;8.396;2023-07-31T00:17:27;17.30;58.00
16271;DHT22;8243;49.048;8.396;2023-07-31T00:19:53;17.30;58.30
16271;DHT22;8243;49.048;8.396;2023-07-31T00:22:18;17.30;58.90
16271;DHT22;8243;49.048;8.396;2023-07-31T00:24:44;17.30;58.80
16271;DHT22;8243;49.048;8.396;2023-07-31T00:27:09;17.20;60.30
16271;DHT22;8243;49.048;8.396;2023-07-31T00:29:35;17.10;63.30
16271;DHT22;8243;49.048;8.396;2023-07-31T00:32:01;17.00;66.50
16271;DHT22;8243;49.048;8.396;2023-07-31T00:34:26;17.00;70.50
16271;DHT22;8243;49.048;8.396;2023-07-31T00:36:52;17.00;72.70
16271;DHT22;8243;49.048;8.396;2023-07-31T00:39:17;16.90;75.60
16271;DHT22;8243;49.048;8.396;2023-07-31T00:41:43;16.80;78.70
16271;DHT22;8243;49.048;8.396;2023-07-31T00:44:08;16.80;79.60
16271;DHT22;8243;49.048;8.396;2023-07-31T00:46:34;16.80;80.20
16271;DHT22;8243;49.048;8.396;2023-07-31T00:48:59;16.80;81.40
16271;DHT22;8243;49.048;8.396;2023-07-31T00:51:25;16.80;83.30
16271;DHT22;8243;49.048;8.396;2023-07-31T00:53:51;16.70;83.80
16271;DHT22;8243;49.048;8.396;2023-07-31T00:56:19;16.80;84.60
16271;DHT22;8243;49.048;8.396;2023-07-31T00:58:45;16.80;83.40
16271;DHT22;8243;49.048;8.396;2023-07-31T01:01:10;16.90;82.70
16271;DHT22;8243;49.048;8.396;2023-07-31T01:03:36;16.90;82.50
16271;DHT22;8243;49.048;8.396;2023-07-31T01:06:19;16.90;82.10
16271;DHT22;8243;49.048;8.396;2023-07-31T01:08:54;16.90;82.10
16271;DHT22;8243;49.048;8.396;2023-07-31T01:11:28;16.90;82.40
16271;DHT22;8243;49.048;8.396;2023-07-31T01:13:57;16.80;82.10
16271;DHT22;8243;49.048;8.396;2023-07-31T01:16:24;16.90;82.20
16271;DHT22;8243;49.048;8.396;2023-07-31T01:18:50;16.80;82.50
16271;DHT22;8243;49.048;8.396;2023-07-31T01:24:28;16.70;83.50
16271;DHT22;8243;49.048;8.396;2023-07-31T01:27:11;16.70;83.60
16271;DHT22;8243;49.048;8.396;2023-07-31T01:29:52;16.70;84.60
16271;DHT22;8243;49.048;8.396;2023-07-31T01:32:19;16.70;85.00
16271;DHT22;8243;49.048;8.396;2023-07-31T01:34:48;16.60;84.90
16271;DHT22;8243;49.048;8.396;2023-07-31T01:37:14;16.60;85.20
16271;DHT22;8243;49.048;8.396;2023-07-31T01:39:39;16.60;85.50
16271;DHT22;8243;49.048;8.396;2023-07-31T01:42:05;16.50;85.80
16271;DHT22;8243;49.048;8.396;2023-07-31T01:44:31;16.50;86.20
16271;DHT22;8243;49.048;8.396;2023-07-31T01:46:57;16.60;85.40
16271;DHT22;8243;49.048;8.396;2023-07-31T01:49:25;16.50;84.80
16271;DHT22;8243;49.048;8.396;2023-07-31T01:51:51;16.50;84.20
16271;DHT22;8243;49.048;8.396;2023-07-31T01:54:16;16.60;83.80
16271;DHT22;8243;49.048;8.396;2023-07-31T01:56:42;16.60;83.40
16271;DHT22;8243;49.048;8.396;2023-07-31T01:59:07;16.60;82.50
16271;DHT22;8243;49.048;8.396;2023-07-31T02:01:33;16.60;83.00
16271;DHT22;8243;49.048;8.396;2023-07-31T02:03:59;16.50;82.10
16271;DHT22;8243;49.048;8.396;2023-07-31T02:06:24;16.50;83.30
16271;DHT22;8243;49.048;8.396;2023-07-31T02:08:50;16.50;83.00
16271;DHT22;8243;49.048;8.396;2023-07-31T02:11:15;16.40;83.30
16271;DHT22;8243;49.048;8.396;2023-07-31T02:13:41;16.40;83.20
16271;DHT22;8243;49.048;8.396;2023-07-31T02:16:06;16.40;83.70
16271;DHT22;8243;49.048;8.396;2023-07-31T02:18:32;16.30;83.50
16271;DHT22;8243;49.048;8.396;2023-07-31T02:20:57;16.40;83.50
16271;DHT22;8243;49.048;8.396;2023-07-31T02:23:23;16.40;82.60
16271;DHT22;8243;49.048;8.396;2023-07-31T02:25:48;16.40;81.90
16271;DHT22;8243;49.048;8.396;2023-07-31T02:28:14;16.40;81.70
16271;DHT22;8243;49.048;8.396;2023-07-31T02:30:39;16.40;81.90
16271;DHT22;8243;49.048;8.396;2023-07-31T02:33:05;16.40;81.00
16271;DHT22;8243;49.048;8.396;2023-07-31T02:35:31;16.50;81.10
16271;DHT22;8243;49.048;8.396;2023-07-31T02:37:56;16.50;80.70
16271;DHT22;8243;49.048;8.396;2023-07-31T02:40:22;16.60;79.70
16271;DHT22;8243;49.048;8.396;2023-07-31T02:42:48;16.60;79.40
16271;DHT22;8243;49.048;8.396;2023-07-31T02:45:14;16.60;78.50
16271;DHT22;8243;49.048;8.396;2023-07-31T02:47:39;16.60;78.00
16271;DHT22;8243;49.048;8.396;2023-07-31T02:50:05;16.60;77.80
16271;DHT22;8243;49.048;8.396;2023-07-31T02:52:31;16.60;77.20
16271;DHT22;8243;49.048;8.396;2023-07-31T02:54:57;16.50;77.10
16271;DHT22;8243;49.048;8.396;2023-07-31T02:57:23;16.50;76.70
16271;DHT22;8243;49.048;8.396;2023-07-31T02:59:48;16.40;77.50
16271;DHT22;8243;49.048;8.396;2023-07-31T03:02:14;16.40;76.80
16271;DHT22;8243;49.048;8.396;2023-07-31T03:04:40;16.40;77.00
16271;DHT22;8243;49.048;8.396;2023-07-31T03:07:06;16.40;77.00
16271;DHT22;8243;49.048;8.396;2023-07-31T03:09:31;16.40;76.90
16271;DHT22;8243;49.048;8.396;2023-07-31T03:11:57;16.40;76.80
16271;DHT22;8243;49.048;8.396;2023-07-31T03:14:22;16.40;76.60
16271;DHT22;8243;49.048;8.396;2023-07-31T03:16:49;16.40;76.00
16271;DHT22;8243;49.048;8.396;2023-07-31T03:19:14;16.40;75.50
16271;DHT22;8243;49.048;8.396;2023-07-31T03:21:40;16.40;75.30
16271;DHT22;8243;49.048;8.396;2023-07-31T03:24:06;16.40;75.20
16271;DHT22;8243;49.048;8.396;2023-07-31T03:26:32;16.40;75.80
16271;DHT22;8243;49.048;8.396;2023-07-31T03:28:57;16.40;74.80
16271;DHT22;8243;49.048;8.396;2023-07-31T03:31:23;16.40;74.50
16271;DHT22;8243;49.048;8.396;2023-07-31T03:33:49;16.30;74.00
16271;DHT22;8243;49.048;8.396;2023-07-31T03:36:14;16.40;73.60
16271;DHT22;8243;49.048;8.396;2023-07-31T03:38:40;16.40;73.20
16271;DHT22;8243;49.048;8.396;2023-07-31T03:41:06;16.40;73.20
16271;DHT22;8243;49.048;8.396;2023-07-31T03:43:32;16.40;73.10
16271;DHT22;8243;49.048;8.396;2023-07-31T03:46:02;16.40;72.80
16271;DHT22;8243;49.048;8.396;2023-07-31T03:48:28;16.40;72.60
16271;DHT22;8243;49.048;8.396;2023-07-31T03:50:53;16.40;72.90
16271;DHT22;8243;49.048;8.396;2023-07-31T03:53:19;16.40;72.70
16271;DHT22;8243;49.048;8.396;2023-07-31T03:55:45;16.40;72.70
16271;DHT22;8243;49.048;8.396;2023-07-31T03:58:10;16.50;71.90
16271;DHT22;8243;49.048;8.396;2023-07-31T04:00:36;16.50;71.30
16271;DHT22;8243;49.048;8.396;2023-07-31T04:03:01;16.60;70.70
16271;DHT22;8243;49.048;8.396;2023-07-31T04:05:27;16.70;69.50
16271;DHT22;8243;49.048;8.396;2023-07-31T04:07:53;16.80;68.30
16271;DHT22;8243;49.048;8.396;2023-07-31T04:10:19;16.90;67.70
16271;DHT22;8243;49.048;8.396;2023-07-31T04:12:44;16.90;66.50
16271;DHT22;8243;49.048;8.396;2023-07-31T04:15:10;17.00;66.40
16271;DHT22;8243;49.048;8.396;2023-07-31T04:17:35;17.00;65.40
16271;DHT22;8243;49.048;8.396;2023-07-31T04:20:01;17.00;65.10
16271;DHT22;8243;49.048;8.396;2023-07-31T04:22:27;17.00;64.60
16271;DHT22;8243;49.048;8.396;2023-07-31T04:24:53;17.10;64.50
16271;DHT22;8243;49.048;8.396;2023-07-31T04:27:19;17.10;64.30
16271;DHT22;8243;49.048;8.396;2023-07-31T04:29:44;17.10;63.90
16271;DHT22;8243;49.048;8.396;2023-07-31T04:32:12;17.10;64.50
16271;DHT22;8243;49.048;8.396;2023-07-31T04:34:37;17.10;64.00
16271;DHT22;8243;49.048;8.396;2023-07-31T04:37:03;17.10;64.30
16271;DHT22;8243;49.048;8.396;2023-07-31T04:39:29;17.00;64.30
16271;DHT22;8243;49.048;8.396;2023-07-31T04:41:54;17.10;64.30
16271;DHT22;8243;49.048;8.396;2023-07-31T04:44:20;17.10;64.60
16271;DHT22;8243;49.048;8.396;2023-07-31T04:46:45;17.10;64.10
16271;DHT22;8243;49.048;8.396;2023-07-31T04:49:11;17.10;63.60
16271;DHT22;8243;49.048;8.396;2023-07-31T04:51:37;17.20;63.60
16271;DHT22;8243;49.048;8.396;2023-07-31T04:54:02;17.20;63.80
16271;DHT22;8243;49.048;8.396;2023-07-31T04:56:28;17.20;62.80
16271;DHT22;8243;49.048;8.396;2023-07-31T04:58:54;17.30;62.60
16271;DHT22;8243;49.048;8.396;2023-07-31T05:01:20;17.40;63.00
16271;DHT22;8243;49.048;8.396;2023-07-31T05:03:46;17.60;62.30
16271;DHT22;8243;49.048;8.396;2023-07-31T05:06:11;17.70;59.00
16271;DHT22;8243;49.048;8.396;2023-07-31T05:08:38;17.80;58.80
16271;DHT22;8243;49.048;8.396;2023-07-31T05:11:04;18.00;57.50
16271;DHT22;8243;49.048;8.396;2023-07-31T05:13:29;18.30;55.40
16271;DHT22;8243;49.048;8.396;2023-07-31T05:15:55;18.70;53.70
16271;DHT22;8243;49.048;8.396;2023-07-31T05:18:21;18.90;49.50
16271;DHT22;8243;49.048;8.396;2023-07-31T05:20:46;18.90;48.90
16271;DHT22;8243;49.048;8.396;2023-07-31T05:23:12;18.90;48.10
16271;DHT22;8243;49.048;8.396;2023-07-31T05:25:37;18.70;47.70
16271;DHT22;8243;49.048;8.396;2023-07-31T05:28:03;18.60;47.70
16271;DHT22;8243;49.048;8.396;2023-07-31T05:30:30;18.60;48.00
16271;DHT22;8243;49.048;8.396;2023-07-31T05:32:56;18.70;48.00
16271;DHT22;8243;49.048;8.396;2023-07-31T05:35:22;18.60;47.20
16271;DHT22;8243;49.048;8.396;2023-07-31T05:37:47;18.60;47.90
16271;DHT22;8243;49.048;8.396;2023-07-31T05:40:13;18.60;47.60
16271;DHT22;8243;49.048;8.396;2023-07-31T05:42:39;18.60;47.30
16271;DHT22;8243;49.048;8.396;2023-07-31T05:45:06;18.80;46.70
16271;DHT22;8243;49.048;8.396;2023-07-31T05:47:32;18.80;46.60
16271;DHT22;8243;49.048;8.396;2023-07-31T05:49:58;18.90;46.40
16271;DHT22;8243;49.048;8.396;2023-07-31T05:52:23;19.00;45.50
16271;DHT22;8243;49.048;8.396;2023-07-31T05:54:49;18.90;45.40
16271;DHT22;8243;49.048;8.396;2023-07-31T05:57:14;18.80;46.60
16271;DHT22;8243;49.048;8.396;2023-07-31T05:59:40;18.70;47.00
16271;DHT22;8243;49.048;8.396;2023-07-31T06:02:06;18.60;47.30
16271;DHT22;8243;49.048;8.396;2023-07-31T06:04:31;18.70;47.00
16271;DHT22;8243;49.048;8.396;2023-07-31T06:06:57;18.70;46.90
16271;DHT22;8243;49.048;8.396;2023-07-31T06:09:22;18.80;46.00
16271;DHT22;8243;49.048;8.396;2023-07-31T06:11:48;19.00;45.50
16271;DHT22;8243;49.048;8.396;2023-07-31T06:14:13;19.20;44.80
16271;DHT22;8243;49.048;8.396;2023-07-31T06:16:39;19.30;43.80
16271;DHT22;8243;49.048;8.396;2023-07-31T06:19:05;19.60;43.40
16271;DHT22;8243;49.048;8.396;2023-07-31T06:21:30;20.00;40.60
16271;DHT22;8243;49.048;8.396;2023-07-31T06:24:16;20.40;38.80
16271;DHT22;8243;49.048;8.396;2023-07-31T06:26:45;21.90;33.00
16271;DHT22;8243;49.048;8.396;2023-07-31T06:29:11;22.30;28.70
16271;DHT22;8243;49.048;8.396;2023-07-31T06:31:40;22.30;27.70
16271;DHT22;8243;49.048;8.396;2023-07-31T06:34:06;21.90;26.90
16271;DHT22;8243;49.048;8.396;2023-07-31T06:36:31;21.90;26.90
16271;DHT22;8243;49.048;8.396;2023-07-31T06:38:57;21.60;26.90
16271;DHT22;8243;49.048;8.396;2023-07-31T06:41:22;21.40;27.00
16271;DHT22;8243;49.048;8.396;2023-07-31T06:43:48;21.20;27.10
16271;DHT22;8243;49.048;8.396;2023-07-31T06:46:14;21.00;27.60
16271;DHT22;8243;49.048;8.396;2023-07-31T06:48:40;20.80;27.60
16271;DHT22;8243;49.048;8.396;2023-07-31T06:51:06;20.80;27.60
16271;DHT22;8243;49.048;8.396;2023-07-31T06:53:31;20.80;28.70
16271;DHT22;8243;49.048;8.396;2023-07-31T06:55:57;20.70;29.10
16271;DHT22;8243;49.048;8.396;2023-07-31T06:58:22;20.80;28.40
16271;DHT22;8243;49.048;8.396;2023-07-31T07:00:48;20.70;28.30
16271;DHT22;8243;49.048;8.396;2023-07-31T07:03:22;20.50;29.10
16271;DHT22;8243;49.048;8.396;2023-07-31T07:05:47;20.50;29.50
16271;DHT22;8243;49.048;8.396;2023-07-31T07:08:13;20.30;29.90
16271;DHT22;8243;49.048;8.396;2023-07-31T07:10:38;20.30;30.00
16271;DHT22;8243;49.048;8.396;2023-07-31T07:13:04;20.20;30.20
16271;DHT22;8243;49.048;8.396;2023-07-31T07:15:30;20.30;30.70
16271;DHT22;8243;49.048;8.396;2023-07-31T07:17:55;20.60;30.20
16271;DHT22;8243;49.048;8.396;2023-07-31T07:20:21;20.70;30.30
16271;DHT22;8243;49.048;8.396;2023-07-31T07:22:47;20.90;29.50
16271;DHT22;8243;49.048;8.396;2023-07-31T07:25:12;21.10;28.60
16271;DHT22;8243;49.048;8.396;2023-07-31T07:27:38;21.10;29.00
16271;DHT22;8243;49.048;8.396;2023-07-31T07:30:04;21.20;28.50
16271;DHT22;8243;49.048;8.396;2023-07-31T07:32:30;21.10;27.90
16271;DHT22;8243;49.048;8.396;2023-07-31T07:34:56;21.10;28.30
16271;DHT22;8243;49.048;8.396;2023-07-31T07:37:22;21.00;27.80
16271;DHT22;8243;49.048;8.396;2023-07-31T07:39:47;21.00;27.80
16271;DHT22;8243;49.048;8.396;2023-07-31T07:42:13;21.00;28.30
16271;DHT22;8243;49.048;8.396;2023-07-31T07:44:38;21.10;27.80
16271;DHT22;8243;49.048;8.396;2023-07-31T07:47:04;21.30;27.30
16271;DHT22;8243;49.048;8.396;2023-07-31T07:49:34;21.30;26.50
16271;DHT22;8243;49.048;8.396;2023-07-31T07:52:00;21.50;26.00
16271;DHT22;8243;49.048;8.396;2023-07-31T07:54:26;21.50;25.20
16271;DHT22;8243;49.048;8.396;2023-07-31T07:56:51;21.50;25.30
16271;DHT22;8243;49.048;8.396;2023-07-31T07:59:17;21.60;25.20
16271;DHT22;8243;49.048;8.396;2023-07-31T08:01:42;21.70;25.70
16271;DHT22;8243;49.048;8.396;2023-07-31T08:04:08;21.80;25.30
16271;DHT22;8243;49.048;8.396;2023-07-31T08:06:34;21.70;24.10
16271;DHT22;8243;49.048;8.396;2023-07-31T08:09:00;21.50;24.70
16271;DHT22;8243;49.048;8.396;2023-07-31T08:11:30;21.50;25.20
16271;DHT22;8243;49.048;8.396;2023-07-31T08:13:56;21.40;25.20
16271;DHT22;8243;49.048;8.396;2023-07-31T08:16:21;21.50;24.90
16271;DHT22;8243;49.048;8.396;2023-07-31T08:18:47;21.50;24.70
16271;DHT22;8243;49.048;8.396;2023-07-31T08:21:14;21.70;24.70
16271;DHT22;8243;49.048;8.396;2023-07-31T08:23:40;21.70;24.00
16271;DHT22;8243;49.048;8.396;2023-07-31T08:26:06;21.80;23.30
16271;DHT22;8243;49.048;8.396;2023-07-31T08:28:31;21.90;22.90
16271;DHT22;8243;49.048;8.396;2023-07-31T08:30:57;22.20;23.50
16271;DHT22;8243;49.048;8.396;2023-07-31T08:33:22;22.40;23.30
16271;DHT22;8243;49.048;8.396;2023-07-31T08:35:48;22.60;22.90
16271;DHT22;8243;49.048;8.396;2023-07-31T08:38:14;22.60;21.90
16271;DHT22;8243;49.048;8.396;2023-07-31T08:40:39;22.70;22.50
16271;DHT22;8243;49.048;8.396;2023-07-31T08:43:05;22.70;21.50
16271;DHT22;8243;49.048;8.396;2023-07-31T08:45:32;22.90;21.40
16271;DHT22;8243;49.048;8.396;2023-07-31T08:47:59;22.90;20.40
16271;DHT22;8243;49.048;8.396;2023-07-31T08:50:25;23.30;18.80
16271;DHT22;8243;49.048;8.396;2023-07-31T08:52:52;23.90;18.00
16271;DHT22;8243;49.048;8.396;2023-07-31T08:55:18;25.10;15.50
16271;DHT22;8243;49.048;8.396;2023-07-31T08:57:49;25.70;13.50
16271;DHT22;8243;49.048;8.396;2023-07-31T09:00:15;26.20;12.40
16271;DHT22;8243;49.048;8.396;2023-07-31T09:03:32;27.00;10.30
16271;DHT22;8243;49.048;8.396;2023-07-31T09:05:31;27.00;8.90
16271;DHT22;8243;49.048;8.396;2023-07-31T09:07:58;26.00;9.80
16271;DHT22;8243;49.048;8.396;2023-07-31T09:10:24;25.70;10.00
16271;DHT22;8243;49.048;8.396;2023-07-31T09:12:51;26.40;10.20
16271;DHT22;8243;49.048;8.396;2023-07-31T09:15:17;26.40;8.80
16271;DHT22;8243;49.048;8.396;2023-07-31T09:17:43;26.80;9.00
16271;DHT22;8243;49.048;8.396;2023-07-31T09:20:17;26.90;8.30
16271;DHT22;8243;49.048;8.396;2023-07-31T09:22:43;27.10;8.10
16271;DHT22;8243;49.048;8.396;2023-07-31T09:27:48;27.30;6.00
16271;DHT22;8243;49.048;8.396;2023-07-31T09:30:14;27.00;6.20
16271;DHT22;8243;49.048;8.396;2023-07-31T09:32:40;27.40;6.20
16271;DHT22;8243;49.048;8.396;2023-07-31T09:35:28;27.30;5.90
16271;DHT22;8243;49.048;8.396;2023-07-31T09:37:57;26.90;5.90
16271;DHT22;8243;49.048;8.396;2023-07-31T09:42:55;25.80;7.80
16271;DHT22;8243;49.048;8.396;2023-07-31T09:45:22;25.50;8.30
16271;DHT22;8243;49.048;8.396;2023-07-31T09:47:48;25.50;9.00
16271;DHT22;8243;49.048;8.396;2023-07-31T09:50:14;26.00;8.90
16271;DHT22;8243;49.048;8.396;2023-07-31T09:52:41;26.40;7.60
16271;DHT22;8243;49.048;8.396;2023-07-31T09:55:08;26.50;7.10
16271;DHT22;8243;49.048;8.396;2023-07-31T09:57:34;26.40;6.70
16271;DHT22;8243;49.048;8.396;2023-07-31T10:00:00;25.80;7.30
16271;DHT22;8243;49.048;8.396;2023-07-31T10:02:27;25.10;8.50
16271;DHT22;8243;49.048;8.396;2023-07-31T10:04:57;25.10;8.70
16271;DHT22;8243;49.048;8.396;2023-07-31T10:07:30;25.80;9.10
16271;DHT22;8243;49.048;8.396;2023-07-31T10:10:00;26.10;7.50
16271;DHT22;8243;49.048;8.396;2023-07-31T10:12:27;26.00;7.50
16271;DHT22;8243;49.048;8.396;2023-07-31T10:14:56;25.40;8.20
16271;DHT22;8243;49.048;8.396;2023-07-31T10:17:22;25.10;9.10
16271;DHT22;8243;49.048;8.396;2023-07-31T10:19:49;25.00;9.20
16271;DHT22;8243;49.048;8.396;2023-07-31T10:22:15;25.00;10.00
16271;DHT22;8243;49.048;8.396;2023-07-31T10:24:45;24.80;9.60
16271;DHT22;8243;49.048;8.396;2023-07-31T10:27:11;24.90;9.90
16271;DHT22;8243;49.048;8.396;2023-07-31T10:29:38;24.70;10.10
16271;DHT22;8243;49.048;8.396;2023-07-31T10:32:06;24.90;9.90
16271;DHT22;8243;49.048;8.396;2023-07-31T10:34:34;25.10;9.90
16271;DHT22;8243;49.048;8.396;2023-07-31T10:40:05;25.00;10.40
16271;DHT22;8243;49.048;8.396;2023-07-31T10:42:36;25.00;9.90
16271;DHT22;8243;49.048;8.396;2023-07-31T10:45:14;25.00;9.40
16271;DHT22;8243;49.048;8.396;2023-07-31T10:47:58;25.00;9.80
16271;DHT22;8243;49.048;8.396;2023-07-31T10:50:25;25.00;10.10
16271;DHT22;8243;49.048;8.396;2023-07-31T10:52:53;25.20;9.80
16271;DHT22;8243;49.048;8.396;2023-07-31T10:55:27;25.40;9.60
16271;DHT22;8243;49.048;8.396;2023-07-31T10:57:55;25.20;9.70
16271;DHT22;8243;49.048;8.396;2023-07-31T11:00:24;25.00;9.90
16271;DHT22;8243;49.048;8.396;2023-07-31T11:05:46;25.30;9.50
16271;DHT22;8243;49.048;8.396;2023-07-31T11:08:14;25.70;10.30
16271;DHT22;8243;49.048;8.396;2023-07-31T11:10:40;25.90;10.10
16271;DHT22;8243;49.048;8.396;2023-07-31T11:13:05;25.90;9.50
16271;DHT22;8243;49.048;8.396;2023-07-31T11:15:31;25.70;9.40
16271;DHT22;8243;49.048;8.396;2023-07-31T11:17:57;26.30;9.40
16271;DHT22;8243;49.048;8.396;2023-07-31T11:20:26;26.40;8.40
16271;DHT22;8243;49.048;8.396;2023-07-31T11:22:52;26.20;8.20
16271;DHT22;8243;49.048;8.396;2023-07-31T11:25:18;26.20;8.50
16271;DHT22;8243;49.048;8.396;2023-07-31T11:27:44;25.90;8.10
16271;DHT22;8243;49.048;8.396;2023-07-31T11:30:10;25.80;8.90
16271;DHT22;8243;49.048;8.396;2023-07-31T11:32:37;25.60;9.20
16271;DHT22;8243;49.048;8.396;2023-07-31T11:35:03;25.40;10.10
16271;DHT22;8243;49.048;8.396;2023-07-31T11:37:44;25.60;9.70
16271;DHT22;8243;49.048;8.396;2023-07-31T11:40:11;26.10;9.40
16271;DHT22;8243;49.048;8.396;2023-07-31T11:42:36;26.20;9.10
16271;DHT22;8243;49.048;8.396;2023-07-31T11:45:06;26.10;9.10
16271;DHT22;8243;49.048;8.396;2023-07-31T11:47:33;25.50;9.40
16271;DHT22;8243;49.048;8.396;2023-07-31T11:50:03;25.50;10.00
16271;DHT22;8243;49.048;8.396;2023-07-31T11:52:32;25.50;9.30
16271;DHT22;8243;49.048;8.396;2023-07-31T11:55:02;25.40;10.00
16271;DHT22;8243;49.048;8.396;2023-07-31T11:57:29;25.80;9.90
16271;DHT22;8243;49.048;8.396;2023-07-31T11:59:55;26.00;9.10
16271;DHT22;8243;49.048;8.396;2023-07-31T12:02:22;26.30;9.10
16271;DHT22;8243;49.048;8.396;2023-07-31T12:04:48;26.50;8.90
16271;DHT22;8243;49.048;8.396;2023-07-31T12:07:13;26.30;8.60
16271;DHT22;8243;49.048;8.396;2023-07-31T12:09:53;26.40;8.80
16271;DHT22;8243;49.048;8.396;2023-07-31T12:12:23;26.90;7.60
16271;DHT22;8243;49.048;8.396;2023-07-31T12:14:49;27.00;8.00
16271;DHT22;8243;49.048;8.396;2023-07-31T12:17:17;26.80;7.90
16271;DHT22;8243;49.048;8.396;2023-07-31T12:19:44;27.20;8.20
16271;DHT22;8243;49.048;8.396;2023-07-31T12:22:14;27.30;7.40
16271;DHT22;8243;49.048;8.396;2023-07-31T12:24:44;27.10;7.60
16271;DHT22;8243;49.048;8.396;2023-07-31T12:27:14;27.30;7.50
16271;DHT22;8243;49.048;8.396;2023-07-31T12:29:41;27.50;6.50
16271;DHT22;8243;49.048;8.396;2023-07-31T12:32:23;27.10;7.30
16271;DHT22;8243;49.048;8.396;2023-07-31T12:34:49;27.00;7.20
16271;DHT22;8243;49.048;8.396;2023-07-31T12:37:14;27.30;7.00
16271;DHT22;8243;49.048;8.396;2023-07-31T12:39:40;27.20;7.80
16271;DHT22;8243;49.048;8.396;2023-07-31T12:42:06;27.00;7.30
16271;DHT22;8243;49.048;8.396;2023-07-31T12:44:32;26.90;7.80
16271;DHT22;8243;49.048;8.396;2023-07-31T12:46:57;27.10;7.80
16271;DHT22;8243;49.048;8.396;2023-07-31T12:49:24;26.90;7.80
16271;DHT22;8243;49.048;8.396;2023-07-31T12:51:50;26.70;8.00
16271;DHT22;8243;49.048;8.396;2023-07-31T12:54:15;26.40;8.50
16271;DHT22;8243;49.048;8.396;2023-07-31T12:56:41;26.20;8.70
16271;DHT22;8243;49.048;8.396;2023-07-31T12:59:07;26.30;8.70
16271;DHT22;8243;49.048;8.396;2023-07-31T13:01:32;26.10;9.10
16271;DHT22;8243;49.048;8.396;2023-07-31T13:03:58;26.20;9.20
16271;DHT22;8243;49.048;8.396;2023-07-31T13:06:25;26.30;9.10
16271;DHT22;8243;49.048;8.396;2023-07-31T13:08:51;26.50;8.60
16271;DHT22;8243;49.048;8.396;2023-07-31T13:11:16;26.50;9.20
16271;DHT22;8243;49.048;8.396;2023-07-31T13:13:42;26.60;8.50
16271;DHT22;8243;49.048;8.396;2023-07-31T13:16:07;26.50;8.80
16271;DHT22;8243;49.048;8.396;2023-07-31T13:18:33;26.20;9.00
16271;DHT22;8243;49.048;8.396;2023-07-31T13:20:58;26.10;9.40
16271;DHT22;8243;49.048;8.396;2023-07-31T13:23:24;26.20;9.30
16271;DHT22;8243;49.048;8.396;2023-07-31T13:25:49;26.20;9.40
16271;DHT22;8243;49.048;8.396;2023-07-31T13:28:15;26.10;10.30
16271;DHT22;8243;49.048;8.396;2023-07-31T13:30:41;26.00;9.80
16271;DHT22;8243;49.048;8.396;2023-07-31T13:33:06;26.10;10.30
16271;DHT22;8243;49.048;8.396;2023-07-31T13:35:32;26.10;9.80
16271;DHT22;8243;49.048;8.396;2023-07-31T13:37:57;26.10;9.70
16271;DHT22;8243;49.048;8.396;2023-07-31T13:40:23;26.10;10.20
16271;DHT22;8243;49.048;8.396;2023-07-31T13:42:48;26.10;10.50
16271;DHT22;8243;49.048;8.396;2023-07-31T13:45:14;25.80;10.70
16271;DHT22;8243;49.048;8.396;2023-07-31T13:47:40;25.60;11.00
16271;DHT22;8243;49.048;8.396;2023-07-31T13:50:05;25.70;11.00
16271;DHT22;8243;49.048;8.396;2023-07-31T13:52:31;25.80;11.20
16271;DHT22;8243;49.048;8.396;2023-07-31T13:54:57;25.90;11.10
16271;DHT22;8243;49.048;8.396;2023-07-31T13:57:22;25.90;10.80
16271;DHT22;8243;49.048;8.396;2023-07-31T13:59:48;26.00;10.70
16271;DHT22;8243;49.048;8.396;2023-07-31T14:02:14;26.10;10.70
16271;DHT22;8243;49.048;8.396;2023-07-31T14:04:40;25.90;10.40
16271;DHT22;8243;49.048;8.396;2023-07-31T14:07:06;25.90;10.90
16271;DHT22;8243;49.048;8.396;2023-07-31T14:09:31;26.00;11.50
16271;DHT22;8243;49.048;8.396;2023-07-31T14:11:57;25.90;11.10
16271;DHT22;8243;49.048;8.396;2023-07-31T14:14:23;25.80;11.20
16271;DHT22;8243;49.048;8.396;2023-07-31T14:16:48;25.60;11.70
16271;DHT22;8243;49.048;8.396;2023-07-31T14:19:14;25.30;12.00
16271;DHT22;8243;49.048;8.396;2023-07-31T14:21:39;25.00;12.00
16271;DHT22;8243;49.048;8.396;2023-07-31T14:24:05;24.80;12.60
16271;DHT22;8243;49.048;8.396;2023-07-31T14:26:30;24.80;13.40
16271;DHT22;8243;49.048;8.396;2023-07-31T14:28:56;24.70;13.40
16271;DHT22;8243;49.048;8.396;2023-07-31T14:31:21;24.60;13.60
16271;DHT22;8243;49.048;8.396;2023-07-31T14:33:47;24.50;13.50
16271;DHT22;8243;49.048;8.396;2023-07-31T14:36:12;24.50;14.00
16271;DHT22;8243;49.048;8.396;2023-07-31T14:38:38;24.70;14.30
16271;DHT22;8243;49.048;8.396;2023-07-31T14:41:04;25.00;13.90
16271;DHT22;8243;49.048;8.396;2023-07-31T14:43:29;25.20;13.70
16271;DHT22;8243;49.048;8.396;2023-07-31T14:45:55;25.30;13.20
16271;DHT22;8243;49.048;8.396;2023-07-31T14:48:25;25.50;12.90
16271;DHT22;8243;49.048;8.396;2023-07-31T14:50:51;25.70;12.50
16271;DHT22;8243;49.048;8.396;2023-07-31T14:53:17;25.80;12.60
16271;DHT22;8243;49.048;8.396;2023-07-31T14:55:42;25.80;12.20
16271;DHT22;8243;49.048;8.396;2023-07-31T14:58:08;25.70;12.30
16271;DHT22;8243;49.048;8.396;2023-07-31T15:00:36;25.80;12.50
16271;DHT22;8243;49.048;8.396;2023-07-31T15:03:02;25.90;12.50
16271;DHT22;8243;49.048;8.396;2023-07-31T15:05:28;26.10;12.60
16271;DHT22;8243;49.048;8.396;2023-07-31T15:07:53;25.70;11.90
16271;DHT22;8243;49.048;8.396;2023-07-31T15:10:19;25.60;12.40
16271;DHT22;8243;49.048;8.396;2023-07-31T15:12:44;25.70;12.30
16271;DHT22;8243;49.048;8.396;2023-07-31T15:15:10;25.80;12.10
16271;DHT22;8243;49.048;8.396;2023-07-31T15:17:35;25.90;12.50
16271;DHT22;8243;49.048;8.396;2023-07-31T15:20:01;26.00;11.90
16271;DHT22;8243;49.048;8.396;2023-07-31T15:22:27;26.10;11.40
16271;DHT22;8243;49.048;8.396;2023-07-31T15:24:52;26.00;11.70
16271;DHT22;8243;49.048;8.396;2023-07-31T15:27:18;26.00;11.70
16271;DHT22;8243;49.048;8.396;2023-07-31T15:29:43;26.10;11.70
16271;DHT22;8243;49.048;8.396;2023-07-31T15:32:09;26.10;10.70
16271;DHT22;8243;49.048;8.396;2023-07-31T15:34:35;25.90;11.20
16271;DHT22;8243;49.048;8.396;2023-07-31T15:37:00;25.70;11.30
16271;DHT22;8243;49.048;8.396;2023-07-31T15:39:26;25.50;11.70
16271;DHT22;8243;49.048;8.396;2023-07-31T15:41:51;25.30;12.40
16271;DHT22;8243;49.048;8.396;2023-07-31T15:44:17;25.20;12.80
16271;DHT22;8243;49.048;8.396;2023-07-31T15:46:43;25.10;13.00
16271;DHT22;8243;49.048;8.396;2023-07-31T15:49:08;25.00;13.40
16271;DHT22;8243;49.048;8.396;2023-07-31T15:51:34;24.90;13.80
16271;DHT22;8243;49.048;8.396;2023-07-31T15:53:59;24.80;14.00
16271;DHT22;8243;49.048;8.396;2023-07-31T15:56:25;24.70;16.10
16271;DHT22;8243;49.048;8.396;2023-07-31T15:58:51;24.80;17.50